createdAt,value
2023-03-28T00:00:09.730Z,99.90
2023-03-28T00:02:36.479Z,99.90
2023-03-28T00:05:03.349Z,99.90
2023-03-28T00:07:30.057Z,99.90
2023-03-28T00:09:57.501Z,99.90
2023-03-28T00:12:24.586Z,99.90
2023-03-28T00:14:51.295Z,99.90
2023-03-28T00:17:18.149Z,99.90
2023-03-28T00:19:46.943Z,99.90
2023-03-28T00:22:13.597Z,99.90
2023-03-28T00:24:41.090Z,99.90
2023-03-28T00:27:08.073Z,99.90
2023-03-28T00:29:34.770Z,99.90
2023-03-28T00:32:01.524Z,99.90
2023-03-28T00:34:28.244Z,99.90
2023-03-28T00:36:55.211Z,99.90
2023-03-28T00:39:21.892Z,99.90
2023-03-28T00:41:49.373Z,99.90
2023-03-28T00:44:34.722Z,99.90
2023-03-28T00:47:01.518Z,99.90
2023-03-28T00:49:28.392Z,99.90
2023-03-28T00:51:59.660Z,99.90
2023-03-28T00:54:28.381Z,99.90
2023-03-28T00:56:57.016Z,99.90
2023-03-28T00:59:27.020Z,99.90
2023-03-28T01:01:55.341Z,99.90
2023-03-28T01:04:24.610Z,99.90
2023-03-28T01:06:54.591Z,99.90
2023-03-28T01:09:24.081Z,99.90
2023-03-28T01:11:52.054Z,99.90
2023-03-28T01:14:20.621Z,99.90
2023-03-28T01:16:47.909Z,99.90
2023-03-28T01:19:21.982Z,99.90
2023-03-28T01:22:07.404Z,99.90
2023-03-28T01:24:49.515Z,99.90
2023-03-28T01:27:21.178Z,99.90
2023-03-28T01:30:07.813Z,99.90
2023-03-28T01:32:46.763Z,99.90
2023-03-28T01:35:26.677Z,99.90
2023-03-28T01:37:56.591Z,99.90
2023-03-28T01:40:26.967Z,99.90
2023-03-28T01:42:59.043Z,99.90
2023-03-28T01:45:34.600Z,99.90
2023-03-28T01:48:05.279Z,99.90
2023-03-28T01:50:43.855Z,99.90
2023-03-28T01:53:10.767Z,99.90
2023-03-28T01:55:42.278Z,99.90
2023-03-28T01:58:23.012Z,99.90
2023-03-28T02:00:54.505Z,99.90
2023-03-28T02:03:29.602Z,99.90
2023-03-28T02:05:57.684Z,99.90
2023-03-28T02:08:27.079Z,99.90
2023-03-28T02:10:54.933Z,99.90
2023-03-28T02:13:23.334Z,99.90
2023-03-28T02:15:56.295Z,99.90
2023-03-28T02:18:26.293Z,99.90
2023-03-28T02:20:55.053Z,99.90
2023-03-28T02:23:24.422Z,99.90
2023-03-28T02:25:51.649Z,99.90
2023-03-28T02:28:19.388Z,99.90
2023-03-28T02:30:46.153Z,99.90
2023-03-28T02:33:31.883Z,99.90
2023-03-28T02:36:21.234Z,99.90
2023-03-28T02:38:47.957Z,99.90
2023-03-28T02:41:17.507Z,99.90
2023-03-28T02:43:53.332Z,99.90
2023-03-28T02:46:23.376Z,99.90
2023-03-28T02:48:50.073Z,99.90
2023-03-28T02:51:19.718Z,99.90
2023-03-28T02:53:49.488Z,99.90
2023-03-28T02:56:22.226Z,99.90
2023-03-28T02:58:53.597Z,99.90
2023-03-28T03:01:21.206Z,99.90
2023-03-28T03:03:50.173Z,99.90
2023-03-28T03:06:17.921Z,99.90
2023-03-28T03:08:44.893Z,99.90
2023-03-28T03:11:11.645Z,99.90
2023-03-28T03:13:38.436Z,99.90
2023-03-28T03:16:05.371Z,99.90
2023-03-28T03:18:32.471Z,99.90
2023-03-28T03:21:01.681Z,99.90
2023-03-28T03:23:28.627Z,99.90
2023-03-28T03:25:55.338Z,99.90
2023-03-28T03:28:22.056Z,99.90
2023-03-28T03:30:48.725Z,99.90
2023-03-28T03:33:16.944Z,99.90
2023-03-28T03:35:45.990Z,99.90
2023-03-28T03:38:13.112Z,99.90
2023-03-28T03:40:40.262Z,99.90
2023-03-28T03:43:06.978Z,99.90
2023-03-28T03:45:33.776Z,99.90
2023-03-28T03:48:00.468Z,99.90
2023-03-28T03:50:27.289Z,99.90
2023-03-28T03:52:54.223Z,99.90
2023-03-28T03:55:24.045Z,99.90
2023-03-28T03:57:50.796Z,99.90
2023-03-28T04:00:19.156Z,99.90
2023-03-28T04:02:47.733Z,99.90
2023-03-28T04:05:17.419Z,99.90
2023-03-28T04:07:44.150Z,99.90
2023-03-28T04:10:10.962Z,99.90
2023-03-28T04:12:37.692Z,99.90
2023-03-28T04:15:05.320Z,99.90
2023-03-28T04:17:36.145Z,99.90
2023-03-28T04:20:12.061Z,99.90
2023-03-28T04:22:46.190Z,99.90
2023-03-28T04:25:13.820Z,99.90
2023-03-28T04:27:45.154Z,99.90
2023-03-28T04:30:12.421Z,99.90
2023-03-28T04:32:41.413Z,99.90
2023-03-28T04:35:09.132Z,99.90
2023-03-28T04:37:42.598Z,99.90
2023-03-28T04:40:12.684Z,99.90
2023-03-28T04:42:39.460Z,99.90
2023-03-28T04:45:16.406Z,99.90
2023-03-28T04:47:44.655Z,99.90
2023-03-28T04:50:15.350Z,99.90
2023-03-28T04:52:42.563Z,99.90
2023-03-28T04:55:10.302Z,99.90
2023-03-28T04:57:38.415Z,99.90
2023-03-28T05:00:10.293Z,99.90
2023-03-28T05:02:37.324Z,99.90
2023-03-28T05:05:04.251Z,99.90
2023-03-28T05:07:31.213Z,99.90
2023-03-28T05:09:58.481Z,99.90
2023-03-28T05:12:26.218Z,99.90
2023-03-28T05:14:55.395Z,99.90
2023-03-28T05:17:22.019Z,99.90
2023-03-28T05:19:48.736Z,99.90
2023-03-28T05:22:15.463Z,99.90
2023-03-28T05:24:42.372Z,99.90
2023-03-28T05:27:10.262Z,99.90
2023-03-28T05:29:40.923Z,99.90
2023-03-28T05:32:07.825Z,99.90
2023-03-28T05:34:36.078Z,99.90
2023-03-28T05:37:02.829Z,99.90
2023-03-28T05:39:30.140Z,99.90
2023-03-28T05:42:06.151Z,99.90
2023-03-28T05:44:32.837Z,99.90
2023-03-28T06:15:06.296Z,99.90
2023-03-28T06:17:33.778Z,99.90
2023-03-28T06:20:00.751Z,99.90
2023-03-28T06:22:27.567Z,99.90
2023-03-28T06:24:54.321Z,99.90
2023-03-28T06:27:21.070Z,99.90
2023-03-28T06:29:47.751Z,99.90
2023-03-28T06:32:15.328Z,99.90
2023-03-28T06:34:42.058Z,99.90
2023-03-28T06:37:08.907Z,99.90
2023-03-28T06:39:35.959Z,99.90
2023-03-28T06:42:03.492Z,99.90
2023-03-28T06:44:31.099Z,99.90
2023-03-28T06:46:58.090Z,99.90
2023-03-28T06:49:24.885Z,99.90
2023-03-28T06:51:51.571Z,99.90
2023-03-28T06:54:18.453Z,99.90
2023-03-28T06:56:45.135Z,99.90
2023-03-28T06:59:11.893Z,99.90
2023-03-28T07:01:38.719Z,99.90
2023-03-28T07:04:05.654Z,99.90
2023-03-28T07:06:32.520Z,99.90
2023-03-28T07:08:59.303Z,99.90
2023-03-28T07:11:26.008Z,99.90
2023-03-28T07:13:53.438Z,99.90
2023-03-28T07:16:20.972Z,99.90
2023-03-28T07:18:47.691Z,99.90
2023-03-28T07:21:15.878Z,99.90
2023-03-28T07:23:42.894Z,99.90
2023-03-28T07:26:11.037Z,99.90
2023-03-28T07:28:37.670Z,99.90
2023-03-28T07:31:05.261Z,99.90
2023-03-28T07:33:37.465Z,99.90
2023-03-28T07:36:09.248Z,99.90
2023-03-28T07:38:36.609Z,99.90
2023-03-28T07:41:03.795Z,99.90
2023-03-28T07:43:30.575Z,99.90
2023-03-28T08:16:13.697Z,99.90
2023-03-28T08:18:40.642Z,99.90
2023-03-28T08:21:08.105Z,99.90
2023-03-28T08:23:34.806Z,99.90
2023-03-28T08:26:04.679Z,99.90
2023-03-28T08:28:35.331Z,99.90
2023-03-28T08:31:02.792Z,99.90
2023-03-28T08:33:29.881Z,99.90
2023-03-28T08:35:57.040Z,99.90
2023-03-28T08:38:24.200Z,99.90
2023-03-28T08:40:58.198Z,99.30
2023-03-28T08:43:31.177Z,99.90
2023-03-28T08:45:59.853Z,99.50
2023-03-28T08:48:31.897Z,99.90
2023-03-28T08:51:09.506Z,94.90
2023-03-28T08:53:40.965Z,92.70
2023-03-28T08:56:08.488Z,92.80
2023-03-28T08:58:42.735Z,91.40
2023-03-28T09:01:09.935Z,89.10
2023-03-28T09:03:36.886Z,84.80
2023-03-28T09:06:09.661Z,86.20
2023-03-28T09:08:39.354Z,84.20
2023-03-28T09:11:18.125Z,81.20
2023-03-28T09:13:50.898Z,79.80
2023-03-28T09:16:36.593Z,83.00
2023-03-28T09:19:07.071Z,82.10
2023-03-28T09:21:42.866Z,81.80
2023-03-28T09:24:12.446Z,81.40
2023-03-28T09:26:44.512Z,80.20
2023-03-28T09:29:16.239Z,80.50
2023-03-28T09:31:50.938Z,80.70
2023-03-28T09:34:27.648Z,78.80
2023-03-28T09:36:59.682Z,79.50
2023-03-28T09:39:32.654Z,77.70
2023-03-28T09:41:59.724Z,77.70
2023-03-28T09:44:29.364Z,74.70
2023-03-28T09:46:57.429Z,75.40
2023-03-28T09:49:25.640Z,73.80
2023-03-28T09:51:54.800Z,71.30
2023-03-28T09:54:29.229Z,71.60
2023-03-28T09:57:03.776Z,73.10
2023-03-28T09:59:31.975Z,72.50
2023-03-28T10:01:59.530Z,72.60
2023-03-28T10:04:26.560Z,72.60
2023-03-28T10:06:54.746Z,70.90
2023-03-28T10:09:22.942Z,71.90
2023-03-28T10:11:54.697Z,71.80
2023-03-28T10:14:31.688Z,71.80
2023-03-28T10:17:01.239Z,72.20
2023-03-28T10:19:31.668Z,72.20
2023-03-28T10:22:01.227Z,71.00
2023-03-28T10:24:28.166Z,72.00
2023-03-28T10:26:57.649Z,70.40
2023-03-28T10:29:27.077Z,70.20
2023-03-28T10:31:55.130Z,69.90
2023-03-28T10:34:31.617Z,71.20
2023-03-28T10:36:58.333Z,69.80
2023-03-28T10:39:29.272Z,69.70
2023-03-28T10:41:57.089Z,69.20
2023-03-28T10:44:35.887Z,70.80
2023-03-28T11:21:15.771Z,68.80
2023-03-28T11:24:00.700Z,69.90
2023-03-28T11:26:35.210Z,67.50
2023-03-28T11:29:01.888Z,66.10
2023-03-28T11:31:31.514Z,66.30
2023-03-28T11:34:16.918Z,66.80
2023-03-28T11:39:39.083Z,67.70
2023-03-28T11:42:08.670Z,68.00
2023-03-28T11:44:37.739Z,64.90
2023-03-28T11:47:08.258Z,64.70
2023-03-28T11:49:37.757Z,63.10
2023-03-28T11:52:09.932Z,64.10
2023-03-28T11:54:42.746Z,64.80
2023-03-28T11:57:19.202Z,65.80
2023-03-28T11:59:55.979Z,64.00
2023-03-28T12:02:40.232Z,64.00
2023-03-28T12:05:32.696Z,64.60
2023-03-28T12:08:04.466Z,63.50
2023-03-28T12:10:38.178Z,64.50
2023-03-28T12:13:05.039Z,63.50
2023-03-28T12:15:37.439Z,63.10
2023-03-28T12:18:12.865Z,64.10
2023-03-28T12:52:47.125Z,64.90
2023-03-28T12:55:26.655Z,64.40
2023-03-28T12:57:54.835Z,64.90
2023-03-28T13:00:27.532Z,63.30
2023-03-28T13:03:13.535Z,61.10
2023-03-28T13:06:02.918Z,61.40
2023-03-28T13:08:44.973Z,60.00
2023-03-28T13:11:22.118Z,62.00
2023-03-28T13:14:07.482Z,59.70
2023-03-28T13:16:55.828Z,60.40
2023-03-28T13:19:37.169Z,59.30
2023-03-28T13:22:04.122Z,58.60
2023-03-28T13:24:39.920Z,57.80
2023-03-28T13:27:14.244Z,57.30
2023-03-28T13:29:48.903Z,55.60
2023-03-28T13:32:17.298Z,56.10
2023-03-28T13:34:50.936Z,58.10
2023-03-28T13:37:22.651Z,57.20
2023-03-28T13:39:52.529Z,58.30
2023-03-28T13:42:48.769Z,57.90
2023-03-28T13:45:24.209Z,59.10
2023-03-28T13:47:59.905Z,59.30
2023-03-28T13:50:34.366Z,60.40
2023-03-28T13:53:01.685Z,60.40
2023-03-28T13:55:28.392Z,61.20
2023-03-28T13:57:58.031Z,61.20
2023-03-28T14:00:26.940Z,61.90
2023-03-28T14:03:00.357Z,62.00
2023-03-28T14:05:31.267Z,61.80
2023-03-28T14:08:21.504Z,63.00
2023-03-28T14:10:49.003Z,63.70
2023-03-28T14:13:17.850Z,64.30
2023-03-28T14:15:45.292Z,64.50
2023-03-28T14:18:16.776Z,64.60
2023-03-28T14:20:44.321Z,63.00
2023-03-28T14:23:25.847Z,65.00
2023-03-28T14:25:52.989Z,65.30
2023-03-28T14:28:19.812Z,63.30
2023-03-28T14:30:46.733Z,63.90
2023-03-28T14:33:14.844Z,63.90
2023-03-28T14:35:46.224Z,62.30
2023-03-28T14:38:14.112Z,63.60
2023-03-28T14:40:41.947Z,64.10
2023-03-28T14:43:16.051Z,63.70
2023-03-28T14:45:43.867Z,61.50
2023-03-28T14:48:13.872Z,64.10
2023-03-28T14:50:40.997Z,63.30
2023-03-28T14:53:11.739Z,62.50
2023-03-28T14:55:38.864Z,61.50
2023-03-28T14:58:06.228Z,61.90
2023-03-28T15:00:37.621Z,60.60
2023-03-28T15:03:06.222Z,60.90
2023-03-28T15:05:33.461Z,63.40
2023-03-28T15:08:01.357Z,62.10
2023-03-28T15:10:28.337Z,62.50
2023-03-28T15:13:04.095Z,61.50
2023-03-28T15:15:35.760Z,61.20
2023-03-28T15:18:05.942Z,61.60
2023-03-28T15:20:34.574Z,61.40
2023-03-28T15:23:03.027Z,61.70
2023-03-28T15:25:30.355Z,59.60
2023-03-28T15:27:58.532Z,60.40
2023-03-28T15:30:25.555Z,61.00
2023-03-28T15:32:52.947Z,60.20
2023-03-28T15:35:23.966Z,60.90
2023-03-28T15:37:51.011Z,60.70
2023-03-28T15:40:25.723Z,60.80
2023-03-28T15:42:55.514Z,60.90
2023-03-28T15:45:24.444Z,60.80
2023-03-28T15:47:55.465Z,61.40
2023-03-28T15:50:27.155Z,62.20
2023-03-28T15:52:58.284Z,62.40
2023-03-28T15:55:26.200Z,62.70
2023-03-28T15:57:54.454Z,62.50
2023-03-28T16:00:38.199Z,63.60
2023-03-28T16:03:17.153Z,62.10
2023-03-28T16:05:55.126Z,62.30
2023-03-28T16:08:25.907Z,62.60
2023-03-28T16:10:52.577Z,62.60
2023-03-28T16:13:19.278Z,61.00
2023-03-28T16:15:46.594Z,61.50
2023-03-28T16:18:13.479Z,63.40
2023-03-28T16:20:40.502Z,64.20
2023-03-28T16:23:08.026Z,63.60
2023-03-28T16:25:34.983Z,63.40
2023-03-28T16:28:02.532Z,64.10
2023-03-28T16:30:36.941Z,65.30
2023-03-28T16:33:05.372Z,64.90
2023-03-28T16:35:32.391Z,65.30
2023-03-28T16:37:59.084Z,65.70
2023-03-28T16:40:26.137Z,65.80
2023-03-28T16:42:52.805Z,66.40
2023-03-28T16:45:20.505Z,67.40
2023-03-28T16:47:47.628Z,68.00
2023-03-28T16:50:14.800Z,67.90
2023-03-28T16:52:41.836Z,68.90
2023-03-28T16:55:12.547Z,68.90
2023-03-28T16:57:39.208Z,69.80
2023-03-28T17:00:07.265Z,70.50
2023-03-28T17:02:34.190Z,69.50
2023-03-28T17:05:01.041Z,69.90
2023-03-28T17:07:27.900Z,69.90
2023-03-28T17:09:54.628Z,70.50
2023-03-28T17:12:22.494Z,69.90
2023-03-28T17:14:49.370Z,70.60
2023-03-28T17:17:16.154Z,70.40
2023-03-28T17:19:43.258Z,70.80
2023-03-28T17:22:09.869Z,71.00
2023-03-28T17:24:36.625Z,71.60
2023-03-28T17:27:03.583Z,72.20
2023-03-28T17:29:30.746Z,71.20
2023-03-28T17:31:57.791Z,72.30
2023-03-28T17:34:24.660Z,72.00
2023-03-28T17:36:53.511Z,71.70
2023-03-28T17:39:20.593Z,72.00
2023-03-28T17:41:47.245Z,72.10
2023-03-28T17:44:13.853Z,72.40
2023-03-28T18:19:02.592Z,73.80
2023-03-28T18:21:29.351Z,74.30
2023-03-28T18:23:55.994Z,75.10
2023-03-28T18:26:24.062Z,75.80
2023-03-28T18:28:50.779Z,75.50
2023-03-28T18:31:19.555Z,75.60
2023-03-28T18:33:46.458Z,75.60
2023-03-28T18:36:13.519Z,75.70
2023-03-28T18:38:42.115Z,75.90
2023-03-28T18:41:09.507Z,76.00
2023-03-28T18:43:37.199Z,76.30
2023-03-28T18:46:04.330Z,76.40
2023-03-28T18:48:31.288Z,76.90
2023-03-28T18:51:03.617Z,77.80
2023-03-28T18:53:30.389Z,77.40
2023-03-28T18:55:57.336Z,77.70
2023-03-28T18:58:25.253Z,76.60
2023-03-28T19:00:57.126Z,77.20
2023-03-28T19:03:24.432Z,77.80
2023-03-28T19:05:54.052Z,78.10
2023-03-28T19:08:21.409Z,78.70
2023-03-28T19:10:48.250Z,78.80
2023-03-28T19:13:15.046Z,78.40
2023-03-28T19:15:42.194Z,79.30
2023-03-28T19:18:09.101Z,77.60
2023-03-28T19:49:16.509Z,75.40
2023-03-28T19:51:43.285Z,76.00
2023-03-28T19:54:10.005Z,75.10
2023-03-28T19:56:36.885Z,76.10
2023-03-28T19:59:03.612Z,76.00
2023-03-28T20:01:30.403Z,76.00
2023-03-28T20:03:57.152Z,76.20
2023-03-28T20:06:23.953Z,75.40
2023-03-28T20:08:50.991Z,77.00
2023-03-28T20:11:18.354Z,76.90
2023-03-28T20:13:45.001Z,78.90
2023-03-28T20:16:12.473Z,79.80
2023-03-28T20:18:39.945Z,80.20
2023-03-28T20:21:09.086Z,80.60
2023-03-28T20:23:35.949Z,82.10
2023-03-28T20:26:12.252Z,80.00
2023-03-28T20:28:40.083Z,79.40
2023-03-28T20:31:09.533Z,80.30
2023-03-28T20:33:38.240Z,80.70
2023-03-28T20:36:05.748Z,80.60
2023-03-28T20:38:32.637Z,81.00
2023-03-28T20:40:59.572Z,80.90
2023-03-28T20:43:29.594Z,81.60
2023-03-28T20:45:57.520Z,84.60
2023-03-28T20:48:34.811Z,85.60
2023-03-28T20:51:06.533Z,87.20
2023-03-28T20:53:33.652Z,89.40
2023-03-28T20:56:01.887Z,89.20
2023-03-28T20:58:29.475Z,90.50
2023-03-28T21:00:57.651Z,90.80
2023-03-28T21:03:44.698Z,90.90
2023-03-28T21:06:12.852Z,91.30
2023-03-28T21:08:40.338Z,91.50
2023-03-28T21:11:08.507Z,91.50
2023-03-28T21:13:35.688Z,92.90
2023-03-28T21:16:02.446Z,93.60
2023-03-28T21:18:29.606Z,93.50
2023-03-28T21:20:56.613Z,95.30
2023-03-28T21:23:23.286Z,95.60
2023-03-28T21:25:52.797Z,94.90
2023-03-28T21:28:19.509Z,95.20
2023-03-28T21:30:56.113Z,95.60
2023-03-28T21:33:23.807Z,96.00
2023-03-28T21:35:50.957Z,95.60
2023-03-28T21:38:18.238Z,96.30
2023-03-28T21:40:46.159Z,96.70
2023-03-28T21:43:12.935Z,97.30
2023-03-28T21:45:39.854Z,98.20
2023-03-28T21:48:06.615Z,99.90
2023-03-28T21:50:33.380Z,99.90
2023-03-28T21:53:00.323Z,99.90
2023-03-28T21:55:27.029Z,99.90
2023-03-28T21:57:53.720Z,99.90
2023-03-28T22:00:20.686Z,99.90
2023-03-28T22:02:47.617Z,99.90
2023-03-28T22:05:28.321Z,99.90
2023-03-28T22:07:56.677Z,99.90
2023-03-28T22:10:26.600Z,99.90
2023-03-28T22:12:54.092Z,99.90
2023-03-28T22:15:20.817Z,99.90
2023-03-28T22:17:47.669Z,99.90
2023-03-28T22:20:14.842Z,99.90
2023-03-28T22:22:45.107Z,99.90
2023-03-28T22:25:12.715Z,99.90
2023-03-28T22:27:39.841Z,99.90
2023-03-28T22:30:10.417Z,99.90
2023-03-28T22:32:39.090Z,99.90
2023-03-28T22:35:06.027Z,99.90
2023-03-28T22:37:33.160Z,99.90
2023-03-28T22:39:59.842Z,99.90
2023-03-28T22:42:27.064Z,99.90
2023-03-28T22:44:54.096Z,99.90
2023-03-28T22:47:20.814Z,99.90
2023-03-28T22:49:47.923Z,99.90
2023-03-28T22:52:14.790Z,99.90
2023-03-28T22:54:42.641Z,99.90
2023-03-28T22:57:09.511Z,99.90
2023-03-28T22:59:36.549Z,99.90
2023-03-28T23:02:03.919Z,99.90
2023-03-28T23:04:33.011Z,99.90
2023-03-28T23:06:59.704Z,99.90
2023-03-28T23:09:27.982Z,99.90
2023-03-28T23:11:55.168Z,99.90
2023-03-28T23:14:22.279Z,99.90
2023-03-28T23:16:50.222Z,99.90
2023-03-28T23:19:16.872Z,99.90
2023-03-28T23:21:44.027Z,99.90
2023-03-28T23:24:11.862Z,99.90
2023-03-28T23:26:38.536Z,99.90
2023-03-28T23:29:05.294Z,99.90
2023-03-28T23:31:32.015Z,99.90
2023-03-28T23:33:58.745Z,99.90
2023-03-28T23:36:26.303Z,99.90
2023-03-28T23:38:53.109Z,99.90
2023-03-28T23:41:19.908Z,99.90
2023-03-28T23:43:46.596Z,99.90
2023-03-28T23:46:14.115Z,99.90
2023-03-28T23:48:40.812Z,99.90
2023-03-28T23:51:07.557Z,99.90
2023-03-28T23:53:34.192Z,99.90
2023-03-28T23:56:01.043Z,99.90
2023-03-28T23:58:27.772Z,99.90
